Time,TemperatureF,DewpointF,PressureIn,WindDirection,WindDirectionDegrees,WindSpeedMPH,WindSpeedGustMPH,Humidity,HourlyPrecipIn,Conditions,Clouds,dailyrainin,SoftwareType,DateUTC
2013-02-09 00:01:00,10.1,7.0,30.42,SSE,148,0.0,1.0,87,0.00,,---,0.00,VWS V13.01,2013-02-09 06:01:00,
2013-02-09 00:06:00,10.1,7.0,30.41,SSE,148,0.0,0.0,87,0.00,,---,0.00,VWS V13.01,2013-02-09 06:06:00,
2013-02-09 00:11:00,10.2,7.1,30.42,SSE,148,0.0,0.0,87,0.00,,---,0.00,VWS V13.01,2013-02-09 06:11:00,
2013-02-09 00:16:00,10.1,7.0,30.42,SSE,148,0.0,0.0,87,0.00,,---,0.00,VWS V13.01,2013-02-09 06:16:00,
2013-02-09 00:21:00,10.2,7.1,30.42,East,94,0.0,0.0,87,0.00,,---,0.00,VWS V13.01,2013-02-09 06:21:00,
2013-02-09 00:26:00,10.3,7.2,30.42,SSE,149,0.0,1.0,87,0.00,,---,0.00,VWS V13.01,2013-02-09 06:26:00,
2013-02-09 00:31:00,10.4,7.3,30.42,SSE,154,0.0,1.0,87,0.00,,---,0.00,VWS V13.01,2013-02-09 06:31:00,
2013-02-09 00:36:00,10.5,7.4,30.42,SSE,159,0.0,1.0,87,0.00,,---,0.00,VWS V13.01,2013-02-09 06:36:00,
2013-02-09 00:41:00,10.5,7.4,30.42,SSE,159,0.0,1.0,87,0.00,,---,0.00,VWS V13.01,2013-02-09 06:41:00,
2013-02-09 00:46:00,10.6,7.5,30.42,SSE,159,0.0,1.0,87,0.00,,---,0.00,VWS V13.01,2013-02-09 06:46:00,
2013-02-09 00:51:00,10.6,7.5,30.42,SSE,167,0.0,1.0,87,0.00,,---,0.00,VWS V13.01,2013-02-09 06:51:00,
2013-02-09 00:56:00,10.7,7.6,30.42,SSE,167,0.0,1.0,87,0.00,,---,0.00,VWS V13.01,2013-02-09 06:56:00,
2013-02-09 01:01:00,10.7,7.3,30.42,SSE,167,0.0,2.0,86,0.00,,---,0.00,VWS V13.01,2013-02-09 07:01:00,
2013-02-09 01:06:00,10.7,7.3,30.42,SSE,167,0.0,1.0,86,0.00,,---,0.00,VWS V13.01,2013-02-09 07:06:00,
2013-02-09 01:11:00,10.7,7.3,30.42,SSE,168,0.0,2.0,86,0.00,,---,0.00,VWS V13.01,2013-02-09 07:11:00,
2013-02-09 01:16:00,10.7,7.3,30.42,SSW,192,1.0,2.0,86,0.00,,---,0.00,VWS V13.01,2013-02-09 07:16:00,
2013-02-09 01:21:00,10.8,7.4,30.42,SSW,196,2.0,2.0,86,0.00,,---,0.00,VWS V13.01,2013-02-09 07:21:00,
2013-02-09 01:26:00,10.8,7.4,30.42,SSW,196,0.0,2.0,86,0.00,,---,0.00,VWS V13.01,2013-02-09 07:26:00,
2013-02-09 01:32:00,10.8,7.4,30.42,SSW,200,0.0,2.0,86,0.00,,---,0.00,VWS V13.01,2013-02-09 07:32:00,
2013-02-09 01:37:00,10.8,7.4,30.42,SSW,199,0.0,1.0,86,0.00,,---,0.00,VWS V13.01,2013-02-09 07:37:00,
2013-02-09 01:42:00,10.8,7.2,30.42,SSW,200,0.0,1.0,85,0.00,,---,0.00,VWS V13.01,2013-02-09 07:42:00,
2013-02-09 01:47:00,10.7,7.1,30.42,SSW,200,0.0,1.0,85,0.00,,---,0.00,VWS V13.01,2013-02-09 07:47:00,
2013-02-09 01:52:00,10.7,7.1,30.42,SSW,199,0.0,1.0,85,0.00,,---,0.00,VWS V13.01,2013-02-09 07:52:00,
2013-02-09 01:57:00,10.6,7.0,30.42,SSW,199,0.0,1.0,85,0.00,,---,0.00,VWS V13.01,2013-02-09 07:57:00,
2013-02-09 02:02:00,10.5,6.9,30.42,SSW,200,0.0,1.0,85,0.00,,---,0.00,VWS V13.01,2013-02-09 08:02:00,
2013-02-09 02:07:00,10.4,6.8,30.42,SSW,200,0.0,1.0,85,0.00,,---,0.00,VWS V13.01,2013-02-09 08:07:00,
2013-02-09 02:12:00,10.2,6.6,30.43,SSW,199,0.0,1.0,85,0.00,,---,0.00,VWS V13.01,2013-02-09 08:12:00,
2013-02-09 02:17:00,10.1,6.5,30.42,SSW,200,0.0,1.0,85,0.00,,---,0.00,VWS V13.01,2013-02-09 08:17:00,
2013-02-09 02:22:00,10.0,6.4,30.42,SSW,200,0.0,1.0,85,0.00,,---,0.00,VWS V13.01,2013-02-09 08:22:00,
2013-02-09 02:27:00,9.9,6.3,30.42,SSW,200,0.0,1.0,85,0.00,,---,0.00,VWS V13.01,2013-02-09 08:27:00,
2013-02-09 02:32:00,9.9,6.3,30.42,SSW,199,0.0,0.0,85,0.00,,---,0.00,VWS V13.01,2013-02-09 08:32:00,
2013-02-09 02:37:00,9.8,6.2,30.42,SSW,200,0.0,0.0,85,0.00,,---,0.00,VWS V13.01,2013-02-09 08:37:00,
2013-02-09 02:42:00,9.7,6.1,30.42,SSW,200,0.0,0.0,85,0.00,,---,0.00,VWS V13.01,2013-02-09 08:42:00,
2013-02-09 02:47:00,9.6,6.0,30.42,SSW,199,0.0,0.0,85,0.00,,---,0.00,VWS V13.01,2013-02-09 08:47:00,
2013-02-09 02:52:00,9.5,5.9,30.42,SSW,199,0.0,0.0,85,0.00,,---,0.00,VWS V13.01,2013-02-09 08:52:00,
2013-02-09 02:57:00,9.4,5.8,30.41,SSW,200,0.0,0.0,85,0.00,,---,0.00,VWS V13.01,2013-02-09 08:57:00,
2013-02-09 03:02:00,9.4,5.8,30.41,SSW,200,0.0,0.0,85,0.00,,---,0.00,VWS V13.01,2013-02-09 09:02:00,
2013-02-09 03:07:00,9.2,5.6,30.41,SSW,200,0.0,0.0,85,0.00,,---,0.00,VWS V13.01,2013-02-09 09:07:00,
2013-02-09 03:12:00,9.2,5.6,30.40,SSW,199,0.0,0.0,85,0.00,,---,0.00,VWS V13.01,2013-02-09 09:12:00,
2013-02-09 03:17:00,9.1,5.5,30.40,SSW,200,0.0,1.0,85,0.00,,---,0.00,VWS V13.01,2013-02-09 09:17:00,
2013-02-09 03:22:00,9.2,5.9,30.40,SSW,198,0.0,2.0,86,0.00,,---,0.00,VWS V13.01,2013-02-09 09:22:00,
2013-02-09 03:27:00,9.3,6.0,30.40,SSW,198,0.0,2.0,86,0.00,,---,0.00,VWS V13.01,2013-02-09 09:27:00,
2013-02-09 03:32:00,9.4,6.1,30.40,SSW,198,0.0,0.0,86,0.00,,---,0.00,VWS V13.01,2013-02-09 09:32:00,
2013-02-09 03:37:00,9.4,6.1,30.40,SSW,198,0.0,2.0,86,0.00,,---,0.00,VWS V13.01,2013-02-09 09:37:00,
2013-02-09 03:42:00,9.6,6.3,30.40,South,187,1.0,2.0,86,0.00,,---,0.00,VWS V13.01,2013-02-09 09:42:00,
2013-02-09 03:47:00,9.7,6.6,30.39,South,186,0.0,3.0,87,0.00,,---,0.00,VWS V13.01,2013-02-09 09:47:00,
2013-02-09 03:52:00,9.9,6.6,30.39,SW,214,0.0,3.0,86,0.00,,---,0.00,VWS V13.01,2013-02-09 09:52:00,
2013-02-09 03:57:00,9.9,6.6,30.39,SW,214,0.0,3.0,86,0.00,,---,0.00,VWS V13.01,2013-02-09 09:57:00,
2013-02-09 04:02:00,9.9,6.6,30.39,SW,214,0.0,1.0,86,0.00,,---,0.00,VWS V13.01,2013-02-09 10:02:00,
2013-02-09 04:08:00,9.9,6.6,30.39,SW,214,0.0,1.0,86,0.00,,---,0.00,VWS V13.01,2013-02-09 10:08:00,
2013-02-09 04:13:00,9.9,6.6,30.38,SW,214,0.0,1.0,86,0.00,,---,0.00,VWS V13.01,2013-02-09 10:13:00,
2013-02-09 04:18:00,9.9,6.6,30.38,SW,214,0.0,1.0,86,0.00,,---,0.00,VWS V13.01,2013-02-09 10:18:00,
2013-02-09 04:23:00,9.9,6.6,30.38,SW,214,0.0,1.0,86,0.00,,---,0.00,VWS V13.01,2013-02-09 10:23:00,
2013-02-09 04:28:00,9.9,6.6,30.38,SW,214,1.0,1.0,86,0.00,,---,0.00,VWS V13.01,2013-02-09 10:28:00,
2013-02-09 04:33:00,9.9,6.6,30.38,South,170,0.0,1.0,86,0.00,,---,0.00,VWS V13.01,2013-02-09 10:33:00,
2013-02-09 04:38:00,10.1,7.0,30.38,SW,219,0.0,5.0,87,0.00,,---,0.00,VWS V13.01,2013-02-09 10:38:00,
2013-02-09 04:43:00,10.3,6.9,30.38,SW,219,0.0,5.0,86,0.00,,---,0.00,VWS V13.01,2013-02-09 10:43:00,
2013-02-09 04:48:00,10.4,7.1,30.38,SSW,200,0.0,5.0,86,0.00,,---,0.00,VWS V13.01,2013-02-09 10:48:00,
2013-02-09 04:53:00,10.4,7.1,30.38,SSW,200,0.0,5.0,86,0.00,,---,0.00,VWS V13.01,2013-02-09 10:53:00,
2013-02-09 04:58:00,10.4,7.1,30.38,SSW,200,0.0,5.0,86,0.00,,---,0.00,VWS V13.01,2013-02-09 10:58:00,
2013-02-09 05:03:00,10.5,7.2,30.38,South,191,0.0,0.0,86,0.00,,---,0.00,VWS V13.01,2013-02-09 11:03:00,
2013-02-09 05:08:00,10.5,7.2,30.37,SSW,192,0.0,2.0,86,0.00,,---,0.00,VWS V13.01,2013-02-09 11:08:00,
2013-02-09 05:13:00,10.6,7.2,30.37,SSW,193,0.0,2.0,86,0.00,,---,0.00,VWS V13.01,2013-02-09 11:13:00,
2013-02-09 05:18:00,10.6,7.2,30.37,SSW,196,2.0,3.0,86,0.00,,---,0.00,VWS V13.01,2013-02-09 11:18:00,
2013-02-09 05:23:00,10.7,7.3,30.37,South,188,2.0,3.0,86,0.00,,---,0.00,VWS V13.01,2013-02-09 11:23:00,
2013-02-09 05:28:00,10.8,7.2,30.37,South,180,0.0,3.0,85,0.00,,---,0.00,VWS V13.01,2013-02-09 11:28:00,
2013-02-09 05:33:00,10.8,7.2,30.37,SSW,200,0.0,1.0,85,0.00,,---,0.00,VWS V13.01,2013-02-09 11:33:00,
2013-02-09 05:38:00,10.7,7.1,30.37,South,191,0.0,1.0,85,0.00,,---,0.00,VWS V13.01,2013-02-09 11:38:00,
2013-02-09 05:43:00,10.6,7.0,30.36,South,187,2.0,2.0,85,0.00,,---,0.00,VWS V13.01,2013-02-09 11:43:00,
2013-02-09 05:48:00,10.5,6.9,30.36,South,185,0.0,2.0,85,0.00,,---,0.00,VWS V13.01,2013-02-09 11:48:00,
2013-02-09 05:53:00,10.5,6.9,30.36,South,185,0.0,2.0,85,0.00,,---,0.00,VWS V13.01,2013-02-09 11:53:00,
2013-02-09 05:58:00,10.4,6.5,30.36,South,185,0.0,2.0,84,0.00,,---,0.00,VWS V13.01,2013-02-09 11:58:00,
2013-02-09 06:03:00,10.3,6.4,30.36,South,184,0.0,0.0,84,0.00,,---,0.00,VWS V13.01,2013-02-09 12:03:00,
2013-02-09 06:08:00,10.1,6.2,30.36,South,185,0.0,0.0,84,0.00,,---,0.00,VWS V13.01,2013-02-09 12:08:00,
2013-02-09 06:13:00,9.9,6.0,30.36,SSW,211,1.0,2.0,84,0.00,,---,0.00,VWS V13.01,2013-02-09 12:13:00,
2013-02-09 06:18:00,9.9,6.0,30.35,SSW,210,0.0,2.0,84,0.00,,---,0.00,VWS V13.01,2013-02-09 12:18:00,
2013-02-09 06:23:00,9.7,5.8,30.35,SSW,210,2.0,2.0,84,0.00,,---,0.00,VWS V13.01,2013-02-09 12:23:00,
2013-02-09 06:28:00,9.6,6.0,30.35,SSW,211,0.0,2.0,85,0.00,,---,0.00,VWS V13.01,2013-02-09 12:28:00,
2013-02-09 06:33:00,9.6,6.0,30.35,SSW,211,0.0,0.0,85,0.00,,---,0.00,VWS V13.01,2013-02-09 12:33:00,
2013-02-09 06:38:00,9.9,6.6,30.35,SW,234,1.0,2.0,86,0.00,,---,0.00,VWS V13.01,2013-02-09 12:38:00,
2013-02-09 06:43:00,10.2,7.1,30.35,South,180,1.0,3.0,87,0.00,,---,0.00,VWS V13.01,2013-02-09 12:43:00,
2013-02-09 06:48:00,10.6,7.5,30.35,SSW,213,4.0,7.0,87,0.00,,---,0.00,VWS V13.01,2013-02-09 12:48:00,
2013-02-09 06:53:00,10.9,7.8,30.35,South,177,1.0,7.0,87,0.00,,---,0.00,VWS V13.01,2013-02-09 12:53:00,
2013-02-09 06:58:00,11.1,7.7,30.34,SSW,198,1.0,7.0,86,0.00,,---,0.00,VWS V13.01,2013-02-09 12:58:00,
2013-02-09 07:03:00,11.4,8.0,30.33,South,190,1.0,5.0,86,0.00,,---,0.00,VWS V13.01,2013-02-09 13:03:00,
2013-02-09 07:08:00,11.6,8.2,30.33,SSE,159,0.0,6.0,86,0.00,,---,0.00,VWS V13.01,2013-02-09 13:08:00,
2013-02-09 07:13:00,11.8,8.4,30.33,South,169,2.0,6.0,86,0.00,,---,0.00,VWS V13.01,2013-02-09 13:13:00,
2013-02-09 07:18:00,12.1,8.7,30.34,South,178,0.0,6.0,86,0.00,,---,0.00,VWS V13.01,2013-02-09 13:18:00,
2013-02-09 07:23:00,12.2,8.8,30.35,WSW,253,5.0,6.0,86,0.00,,---,0.00,VWS V13.01,2013-02-09 13:23:00,
2013-02-09 07:28:00,12.3,8.9,30.34,South,184,1.0,6.0,86,0.00,,---,0.00,VWS V13.01,2013-02-09 13:28:00,
2013-02-09 07:33:00,12.4,9.0,30.35,South,186,1.0,5.0,86,0.00,,---,0.00,VWS V13.01,2013-02-09 13:33:00,
2013-02-09 07:38:00,12.5,8.9,30.36,SW,236,4.0,5.0,85,0.00,,---,0.00,VWS V13.01,2013-02-09 13:38:00,
2013-02-09 07:43:00,12.6,9.0,30.35,SSE,159,6.0,6.0,85,0.00,,---,0.00,VWS V13.01,2013-02-09 13:43:00,
2013-02-09 07:48:00,12.6,9.0,30.34,South,173,2.0,6.0,85,0.00,,---,0.00,VWS V13.01,2013-02-09 13:48:00,
2013-02-09 07:53:00,12.7,9.3,30.34,South,187,3.0,13.0,86,0.00,,---,0.00,VWS V13.01,2013-02-09 13:53:00,
2013-02-09 07:59:00,12.9,9.5,30.34,SSW,213,4.0,13.0,86,0.00,,---,0.00,VWS V13.01,2013-02-09 13:59:00,
2013-02-09 08:04:00,13.1,9.7,30.34,SSW,192,5.0,7.0,86,0.00,,---,0.00,VWS V13.01,2013-02-09 14:04:00,
2013-02-09 08:09:00,13.2,9.8,30.33,SSW,205,5.0,12.0,86,0.00,,---,0.00,VWS V13.01,2013-02-09 14:09:00,
2013-02-09 08:14:00,13.5,10.4,30.32,South,188,2.0,12.0,87,0.00,,---,0.00,VWS V13.01,2013-02-09 14:14:00,
2013-02-09 08:19:00,13.7,10.6,30.33,SSE,165,3.0,12.0,87,0.00,,---,0.00,VWS V13.01,2013-02-09 14:19:00,
2013-02-09 08:24:00,13.9,11.0,30.33,SW,218,3.0,12.0,88,0.00,,---,0.00,VWS V13.01,2013-02-09 14:24:00,
2013-02-09 08:29:00,14.1,11.2,30.33,SSW,205,4.0,12.0,88,0.00,,---,0.00,VWS V13.01,2013-02-09 14:29:00,
2013-02-09 08:33:00,14.3,11.4,30.33,SSE,157,3.0,4.0,88,0.00,,---,0.00,VWS V13.01,2013-02-09 14:33:00,
2013-02-09 08:38:00,14.4,11.5,30.32,SSW,192,0.0,11.0,88,0.00,,---,0.00,VWS V13.01,2013-02-09 14:38:00,
2013-02-09 08:44:00,14.5,11.6,30.32,South,190,4.0,11.0,88,0.00,,---,0.00,VWS V13.01,2013-02-09 14:44:00,
2013-02-09 08:49:00,14.7,11.8,30.32,South,176,2.0,13.0,88,0.00,,---,0.00,VWS V13.01,2013-02-09 14:49:00,
2013-02-09 08:54:00,14.8,11.9,30.32,SSE,163,4.0,13.0,88,0.00,,---,0.00,VWS V13.01,2013-02-09 14:54:00,
2013-02-09 08:59:00,14.9,12.0,30.32,SSE,161,9.0,13.0,88,0.00,,---,0.00,VWS V13.01,2013-02-09 14:59:00,
2013-02-09 09:04:00,15.0,11.8,30.32,SSE,162,1.0,7.0,87,0.00,,---,0.00,VWS V13.01,2013-02-09 15:04:00,
2013-02-09 09:09:00,15.2,12.0,30.32,SSE,167,4.0,10.0,87,0.00,,---,0.00,VWS V13.01,2013-02-09 15:09:00,
2013-02-09 09:14:00,15.5,12.6,30.31,South,191,5.0,12.0,88,0.00,,---,0.00,VWS V13.01,2013-02-09 15:14:00,
2013-02-09 09:19:00,15.9,13.0,30.31,South,176,7.0,12.0,88,0.00,,---,0.00,VWS V13.01,2013-02-09 15:19:00,
2013-02-09 09:24:00,16.1,12.9,30.31,South,182,1.0,12.0,87,0.00,,---,0.00,VWS V13.01,2013-02-09 15:24:00,
2013-02-09 09:29:00,16.4,13.2,30.31,SSE,168,3.0,12.0,87,0.00,,---,0.00,VWS V13.01,2013-02-09 15:29:00,
2013-02-09 09:34:00,16.8,13.6,30.31,SSW,209,6.0,9.0,87,0.00,,---,0.00,VWS V13.01,2013-02-09 15:34:00,
2013-02-09 09:39:00,17.0,13.8,30.30,SSE,163,1.0,9.0,87,0.00,,---,0.00,VWS V13.01,2013-02-09 15:39:00,
2013-02-09 09:44:00,17.1,13.6,30.30,SSW,197,7.0,11.0,86,0.00,,---,0.00,VWS V13.01,2013-02-09 15:44:00,
2013-02-09 09:49:00,17.2,13.7,30.30,SSE,164,3.0,11.0,86,0.00,,---,0.00,VWS V13.01,2013-02-09 15:49:00,
2013-02-09 09:54:00,17.2,13.7,30.30,SSW,210,6.0,11.0,86,0.00,,---,0.00,VWS V13.01,2013-02-09 15:54:00,
2013-02-09 09:59:00,17.4,13.9,30.29,South,189,5.0,11.0,86,0.00,,---,0.00,VWS V13.01,2013-02-09 15:59:00,
2013-02-09 10:04:00,17.7,14.0,30.29,SSW,213,0.0,6.0,85,0.00,,---,0.00,VWS V13.01,2013-02-09 16:04:00,
2013-02-09 10:09:00,18.0,14.3,30.29,South,183,2.0,9.0,85,0.00,,---,0.00,VWS V13.01,2013-02-09 16:09:00,
2013-02-09 10:14:00,18.2,14.2,30.29,SSE,153,4.0,9.0,84,0.00,,---,0.00,VWS V13.01,2013-02-09 16:14:00,
2013-02-09 10:19:00,18.6,14.6,30.28,SSE,159,5.0,9.0,84,0.00,,---,0.00,VWS V13.01,2013-02-09 16:19:00,
2013-02-09 10:24:00,18.8,14.5,30.28,South,184,1.0,9.0,83,0.00,,---,0.00,VWS V13.01,2013-02-09 16:24:00,
2013-02-09 10:29:00,18.9,14.6,30.28,SW,223,0.0,9.0,83,0.00,,---,0.00,VWS V13.01,2013-02-09 16:29:00,
2013-02-09 10:34:00,19.2,14.9,30.28,SSE,167,2.0,3.0,83,0.00,,---,0.00,VWS V13.01,2013-02-09 16:34:00,
2013-02-09 10:39:00,19.7,15.4,30.28,SW,217,6.0,8.0,83,0.00,,---,0.00,VWS V13.01,2013-02-09 16:39:00,
2013-02-09 10:44:00,19.8,15.2,30.28,SE,128,3.0,8.0,82,0.00,,---,0.00,VWS V13.01,2013-02-09 16:44:00,
2013-02-09 10:49:00,20.3,15.7,30.27,South,179,2.0,8.0,82,0.00,,---,0.00,VWS V13.01,2013-02-09 16:49:00,
2013-02-09 10:54:00,20.8,16.2,30.27,SSW,198,7.0,10.0,82,0.00,,---,0.00,VWS V13.01,2013-02-09 16:54:00,
2013-02-09 10:59:00,21.3,16.4,30.27,South,172,3.0,10.0,81,0.00,,---,0.00,VWS V13.01,2013-02-09 16:59:00,
2013-02-09 11:04:00,21.5,16.6,30.27,South,181,4.0,4.0,81,0.00,,---,0.00,VWS V13.01,2013-02-09 17:04:00,
2013-02-09 11:09:00,22.0,17.1,30.27,SSW,197,1.0,9.0,81,0.00,,---,0.00,VWS V13.01,2013-02-09 17:09:00,
2013-02-09 11:14:00,22.4,17.5,30.27,South,186,0.0,9.0,81,0.00,,---,0.00,VWS V13.01,2013-02-09 17:14:00,
2013-02-09 11:19:00,22.9,17.4,30.26,East,89,2.0,9.0,79,0.00,,---,0.00,VWS V13.01,2013-02-09 17:19:00,
2013-02-09 11:24:00,23.0,17.5,30.26,SSW,207,0.0,9.0,79,0.00,,---,0.00,VWS V13.01,2013-02-09 17:24:00,
2013-02-09 11:29:00,23.3,17.8,30.26,SSE,154,3.0,9.0,79,0.00,,---,0.00,VWS V13.01,2013-02-09 17:29:00,
2013-02-09 11:34:00,23.6,17.8,30.26,South,182,1.0,3.0,78,0.00,,---,0.00,VWS V13.01,2013-02-09 17:34:00,
2013-02-09 11:39:00,24.0,18.5,30.25,SSW,206,1.0,3.0,79,0.00,,---,0.00,VWS V13.01,2013-02-09 17:39:00,
2013-02-09 11:44:00,24.1,18.2,30.25,SSW,194,0.0,6.0,78,0.00,,---,0.00,VWS V13.01,2013-02-09 17:44:00,
2013-02-09 11:49:00,24.3,18.4,30.25,South,184,2.0,6.0,78,0.00,,---,0.00,VWS V13.01,2013-02-09 17:49:00,
2013-02-09 11:55:00,24.6,18.4,30.25,South,182,1.0,6.0,77,0.00,,---,0.00,VWS V13.01,2013-02-09 17:55:00,
2013-02-09 12:00:00,25.0,18.5,30.25,South,172,2.0,6.0,76,0.00,,---,0.00,VWS V13.01,2013-02-09 18:00:00,
2013-02-09 12:05:00,25.1,18.3,30.24,SW,217,2.0,5.0,75,0.00,,---,0.00,VWS V13.01,2013-02-09 18:05:00,
2013-02-09 12:10:00,25.4,18.6,30.24,SSW,198,1.0,6.0,75,0.00,,---,0.00,VWS V13.01,2013-02-09 18:10:00,
2013-02-09 12:15:00,25.7,18.6,30.24,South,184,4.0,6.0,74,0.00,,---,0.00,VWS V13.01,2013-02-09 18:15:00,
2013-02-09 12:20:00,25.7,18.3,30.24,SSE,165,3.0,9.0,73,0.00,,---,0.00,VWS V13.01,2013-02-09 18:20:00,
2013-02-09 12:25:00,25.8,18.7,30.23,South,184,2.0,9.0,74,0.00,,---,0.00,VWS V13.01,2013-02-09 18:25:00,
2013-02-09 12:30:00,25.9,18.5,30.23,SSE,163,2.0,9.0,73,0.00,,---,0.00,VWS V13.01,2013-02-09 18:30:00,
2013-02-09 12:35:00,26.0,18.5,30.23,SSW,211,3.0,4.0,73,0.00,,---,0.00,VWS V13.01,2013-02-09 18:35:00,
2013-02-09 12:40:00,26.1,18.6,30.22,SSW,198,5.0,7.0,73,0.00,,---,0.00,VWS V13.01,2013-02-09 18:40:00,
2013-02-09 12:45:00,26.2,18.4,30.22,South,171,2.0,7.0,72,0.00,,---,0.00,VWS V13.01,2013-02-09 18:45:00,
2013-02-09 12:50:00,26.2,18.1,30.22,South,175,2.0,8.0,71,0.00,,---,0.00,VWS V13.01,2013-02-09 18:50:00,
2013-02-09 12:55:00,26.2,18.1,30.22,South,191,2.0,12.0,71,0.00,,---,0.00,VWS V13.01,2013-02-09 18:55:00,
2013-02-09 13:00:00,26.5,18.4,30.21,SSE,165,3.0,12.0,71,0.00,,---,0.00,VWS V13.01,2013-02-09 19:00:00,
2013-02-09 13:05:00,26.6,18.1,30.21,South,183,1.0,4.0,70,0.00,,---,0.00,VWS V13.01,2013-02-09 19:05:00,
2013-02-09 13:10:00,26.8,18.3,30.20,SSW,205,1.0,6.0,70,0.00,,---,0.00,VWS V13.01,2013-02-09 19:10:00,
2013-02-09 13:15:00,27.0,18.5,30.20,SE,144,5.0,6.0,70,0.00,,---,0.00,VWS V13.01,2013-02-09 19:15:00,
2013-02-09 13:20:00,27.2,18.4,30.20,SSW,195,3.0,6.0,69,0.00,,---,0.00,VWS V13.01,2013-02-09 19:20:00,
2013-02-09 13:25:00,27.5,18.7,30.20,South,174,1.0,6.0,69,0.00,,---,0.00,VWS V13.01,2013-02-09 19:25:00,
2013-02-09 13:30:00,27.6,18.8,30.19,SW,219,5.0,7.0,69,0.00,,---,0.00,VWS V13.01,2013-02-09 19:30:00,
2013-02-09 13:35:00,27.7,18.9,30.19,South,184,1.0,3.0,69,0.00,,---,0.00,VWS V13.01,2013-02-09 19:35:00,
2013-02-09 13:40:00,28.0,18.8,30.19,SSE,159,0.0,3.0,68,0.00,,---,0.00,VWS V13.01,2013-02-09 19:40:00,
2013-02-09 13:45:00,27.8,18.3,30.19,SSW,192,2.0,5.0,67,0.00,,---,0.00,VWS V13.01,2013-02-09 19:45:00,
2013-02-09 13:50:00,27.6,18.1,30.19,SW,218,2.0,5.0,67,0.00,,---,0.00,VWS V13.01,2013-02-09 19:50:00,
2013-02-09 13:55:00,27.3,17.5,30.19,South,189,0.0,6.0,66,0.00,,---,0.00,VWS V13.01,2013-02-09 19:55:00,
2013-02-09 14:00:00,27.5,18.0,30.19,NE,34,3.0,6.0,67,0.00,,---,0.00,VWS V13.01,2013-02-09 20:00:00,
2013-02-09 14:05:00,27.8,17.9,30.19,South,171,2.0,4.0,66,0.00,,---,0.00,VWS V13.01,2013-02-09 20:05:00,
2013-02-09 14:10:00,28.2,18.3,30.19,South,178,2.0,5.0,66,0.00,,---,0.00,VWS V13.01,2013-02-09 20:10:00,
2013-02-09 14:15:00,28.1,17.5,30.19,South,176,5.0,11.0,64,0.00,,---,0.00,VWS V13.01,2013-02-09 20:15:00,
2013-02-09 14:20:00,27.5,17.3,30.18,South,189,3.0,11.0,65,0.00,,---,0.00,VWS V13.01,2013-02-09 20:20:00,
2013-02-09 14:25:00,27.6,17.0,30.18,South,190,6.0,11.0,64,0.00,,---,0.00,VWS V13.01,2013-02-09 20:25:00,
2013-02-09 14:30:00,27.1,16.6,30.18,SSE,154,8.0,11.0,64,0.00,,---,0.00,VWS V13.01,2013-02-09 20:30:00,
2013-02-09 14:35:00,26.7,16.9,30.18,SSW,192,5.0,10.0,66,0.00,,---,0.00,VWS V13.01,2013-02-09 20:35:00,
2013-02-09 14:40:00,26.7,16.5,30.19,South,185,3.0,10.0,65,0.00,,---,0.00,VWS V13.01,2013-02-09 20:40:00,
2013-02-09 14:45:00,26.6,17.1,30.19,SSW,207,4.0,10.0,67,0.00,,---,0.00,VWS V13.01,2013-02-09 20:45:00,
2013-02-09 14:50:00,26.4,17.3,30.19,South,183,4.0,10.0,68,0.00,,---,0.00,VWS V13.01,2013-02-09 20:50:00,
2013-02-09 14:55:00,26.1,17.0,30.19,SSE,157,1.0,14.0,68,0.00,,---,0.00,VWS V13.01,2013-02-09 20:55:00,
2013-02-09 15:00:00,26.2,17.1,30.19,South,184,10.0,14.0,68,0.00,,---,0.00,VWS V13.01,2013-02-09 21:00:00,
2013-02-09 15:05:00,25.7,16.6,30.18,SSE,154,6.0,12.0,68,0.00,,---,0.00,VWS V13.01,2013-02-09 21:05:00,
2013-02-09 15:10:00,25.8,16.7,30.18,SSE,160,7.0,12.0,68,0.00,,---,0.00,VWS V13.01,2013-02-09 21:10:00,
2013-02-09 15:15:00,26.0,17.2,30.18,South,188,3.0,12.0,69,0.00,,---,0.00,VWS V13.01,2013-02-09 21:15:00,
2013-02-09 15:20:00,26.1,17.0,30.18,SSE,149,5.0,12.0,68,0.00,,---,0.00,VWS V13.01,2013-02-09 21:20:00,
2013-02-09 15:25:00,25.5,16.8,30.18,South,169,5.0,12.0,69,0.00,,---,0.00,VWS V13.01,2013-02-09 21:25:00,
2013-02-09 15:30:00,25.2,16.8,30.18,SSW,199,8.0,12.0,70,0.00,,---,0.00,VWS V13.01,2013-02-09 21:30:00,
2013-02-09 15:35:00,24.9,16.5,30.18,SSW,207,3.0,6.0,70,0.00,,---,0.00,VWS V13.01,2013-02-09 21:35:00,
2013-02-09 15:40:00,24.7,16.6,30.18,SSW,192,3.0,11.0,71,0.00,,---,0.00,VWS V13.01,2013-02-09 21:40:00,
2013-02-09 15:45:00,24.5,16.8,30.18,SSW,210,6.0,12.0,72,0.00,,---,0.00,VWS V13.01,2013-02-09 21:45:00,
2013-02-09 15:50:00,24.3,16.6,30.18,SW,230,7.0,12.0,72,0.00,,---,0.00,VWS V13.01,2013-02-09 21:50:00,
2013-02-09 15:55:00,24.2,16.8,30.17,SSW,200,3.0,12.0,73,0.00,,---,0.00,VWS V13.01,2013-02-09 21:55:00,
2013-02-09 16:01:00,24.3,17.2,30.17,SW,218,5.0,12.0,74,0.00,,---,0.00,VWS V13.01,2013-02-09 22:01:00,
2013-02-09 16:06:00,23.9,16.8,30.17,South,179,3.0,6.0,74,0.00,,---,0.00,VWS V13.01,2013-02-09 22:06:00,
2013-02-09 16:11:00,23.8,17.0,30.17,South,176,2.0,6.0,75,0.00,,---,0.00,VWS V13.01,2013-02-09 22:11:00,
2013-02-09 16:16:00,23.7,17.0,30.17,South,176,8.0,8.0,75,0.00,,---,0.00,VWS V13.01,2013-02-09 22:16:00,
2013-02-09 16:21:00,23.3,16.6,30.17,South,177,3.0,10.0,75,0.00,,---,0.00,VWS V13.01,2013-02-09 22:21:00,
2013-02-09 16:26:00,23.0,16.3,30.17,SW,221,1.0,10.0,75,0.00,,---,0.00,VWS V13.01,2013-02-09 22:26:00,
2013-02-09 16:31:00,22.7,16.3,30.17,SSW,192,0.0,10.0,76,0.00,,---,0.00,VWS V13.01,2013-02-09 22:31:00,
2013-02-09 16:36:00,22.5,16.1,30.17,South,190,3.0,7.0,76,0.00,,---,0.00,VWS V13.01,2013-02-09 22:36:00,
2013-02-09 16:41:00,22.2,15.8,30.17,South,180,3.0,13.0,76,0.00,,---,0.00,VWS V13.01,2013-02-09 22:41:00,
2013-02-09 16:46:00,21.9,15.8,30.17,South,169,1.0,13.0,77,0.00,,---,0.00,VWS V13.01,2013-02-09 22:46:00,
2013-02-09 16:51:00,21.7,15.6,30.17,South,186,2.0,13.0,77,0.00,,---,0.00,VWS V13.01,2013-02-09 22:51:00,
2013-02-09 16:56:00,21.6,15.8,30.18,South,175,4.0,13.0,78,0.00,,---,0.00,VWS V13.01,2013-02-09 22:56:00,
2013-02-09 17:01:00,21.3,15.5,30.18,South,184,3.0,13.0,78,0.00,,---,0.00,VWS V13.01,2013-02-09 23:01:00,
2013-02-09 17:06:00,21.1,15.3,30.18,South,171,0.0,4.0,78,0.00,,---,0.00,VWS V13.01,2013-02-09 23:06:00,
2013-02-09 17:11:00,20.9,15.4,30.18,SSE,167,3.0,5.0,79,0.00,,---,0.00,VWS V13.01,2013-02-09 23:11:00,
2013-02-09 17:16:00,20.7,15.2,30.18,SSW,202,1.0,5.0,79,0.00,,---,0.00,VWS V13.01,2013-02-09 23:16:00,
2013-02-09 17:21:00,20.6,15.1,30.18,South,175,9.0,9.0,79,0.00,,---,0.00,VWS V13.01,2013-02-09 23:21:00,
2013-02-09 17:26:00,20.3,14.6,30.18,South,190,2.0,9.0,78,0.00,,---,0.00,VWS V13.01,2013-02-09 23:26:00,
2013-02-09 17:31:00,20.0,14.6,30.18,SSW,197,2.0,9.0,79,0.00,,---,0.00,VWS V13.01,2013-02-09 23:31:00,
2013-02-09 17:36:00,19.8,14.6,30.18,South,182,2.0,6.0,80,0.00,,---,0.00,VWS V13.01,2013-02-09 23:36:00,
2013-02-09 17:41:00,19.7,14.5,30.18,SSW,205,1.0,6.0,80,0.00,,---,0.00,VWS V13.01,2013-02-09 23:41:00,
2013-02-09 17:46:00,19.7,14.5,30.18,SSW,205,2.0,9.0,80,0.00,,---,0.00,VWS V13.01,2013-02-09 23:46:00,
2013-02-09 17:51:00,19.6,14.7,30.18,SSW,206,2.0,9.0,81,0.00,,---,0.00,VWS V13.01,2013-02-09 23:51:00,
2013-02-09 17:56:00,19.5,14.6,30.18,South,179,2.0,9.0,81,0.00,,---,0.00,VWS V13.01,2013-02-09 23:56:00,
2013-02-09 18:01:00,19.4,14.8,30.18,South,184,4.0,9.0,82,0.00,,---,0.00,VWS V13.01,2013-02-10 00:01:00,
2013-02-09 18:06:00,19.3,14.7,30.18,SSE,163,2.0,9.0,82,0.00,,---,0.00,VWS V13.01,2013-02-10 00:06:00,
2013-02-09 18:11:00,19.3,15.0,30.18,South,188,4.0,10.0,83,0.00,,---,0.00,VWS V13.01,2013-02-10 00:11:00,
2013-02-09 18:16:00,19.2,14.9,30.18,South,175,1.0,11.0,83,0.00,,---,0.00,VWS V13.01,2013-02-10 00:16:00,
2013-02-09 18:21:00,19.2,14.9,30.18,SSW,200,3.0,11.0,83,0.00,,---,0.00,VWS V13.01,2013-02-10 00:21:00,
2013-02-09 18:26:00,19.2,14.9,30.18,South,190,1.0,11.0,83,0.00,,---,0.00,VWS V13.01,2013-02-10 00:26:00,
2013-02-09 18:31:00,19.2,15.2,30.18,SSW,194,2.0,11.0,84,0.00,,---,0.00,VWS V13.01,2013-02-10 00:31:00,
2013-02-09 18:36:00,19.1,15.1,30.18,South,175,2.0,9.0,84,0.00,,---,0.00,VWS V13.01,2013-02-10 00:36:00,
2013-02-09 18:41:00,19.1,15.1,30.18,South,173,4.0,11.0,84,0.00,,---,0.00,VWS V13.01,2013-02-10 00:41:00,
2013-02-09 18:47:00,19.0,15.0,30.18,South,188,1.0,11.0,84,0.00,,---,0.00,VWS V13.01,2013-02-10 00:47:00,
2013-02-09 18:52:00,19.0,15.0,30.18,South,174,3.0,11.0,84,0.00,,---,0.00,VWS V13.01,2013-02-10 00:52:00,
2013-02-09 18:57:00,19.0,15.0,30.17,South,186,4.0,11.0,84,0.00,,---,0.00,VWS V13.01,2013-02-10 00:57:00,
2013-02-09 19:02:00,18.9,15.1,30.17,SSE,159,2.0,11.0,85,0.00,,---,0.00,VWS V13.01,2013-02-10 01:02:00,
2013-02-09 19:07:00,18.9,15.1,30.18,South,188,2.0,12.0,85,0.00,,---,0.00,VWS V13.01,2013-02-10 01:07:00,
2013-02-09 19:12:00,18.8,15.1,30.17,South,180,2.0,12.0,85,0.00,,---,0.00,VWS V13.01,2013-02-10 01:12:00,
2013-02-09 19:17:00,18.8,15.1,30.17,SSW,192,1.0,12.0,85,0.00,,---,0.00,VWS V13.01,2013-02-10 01:17:00,
2013-02-09 19:22:00,18.8,15.3,30.18,SSW,192,4.0,12.0,86,0.00,,---,0.00,VWS V13.01,2013-02-10 01:22:00,
2013-02-09 19:27:00,18.7,15.2,30.18,SSW,202,2.0,12.0,86,0.00,,---,0.00,VWS V13.01,2013-02-10 01:27:00,
2013-02-09 19:32:00,18.7,15.2,30.18,South,170,2.0,12.0,86,0.00,,---,0.00,VWS V13.01,2013-02-10 01:32:00,
2013-02-09 19:37:00,18.7,15.2,30.18,SSW,199,3.0,10.0,86,0.00,,---,0.00,VWS V13.01,2013-02-10 01:37:00,
2013-02-09 19:42:00,18.6,15.4,30.18,SSE,163,2.0,10.0,87,0.00,,---,0.00,VWS V13.01,2013-02-10 01:42:00,
2013-02-09 19:47:00,18.6,15.4,30.18,SSW,211,0.0,10.0,87,0.00,,---,0.00,VWS V13.01,2013-02-10 01:47:00,
2013-02-09 19:52:00,18.6,15.4,30.18,SSW,200,2.0,10.0,87,0.00,,---,0.00,VWS V13.01,2013-02-10 01:52:00,
2013-02-09 19:57:00,18.7,15.5,30.17,SSW,192,2.0,10.0,87,0.00,,---,0.00,VWS V13.01,2013-02-10 01:57:00,
2013-02-09 20:02:00,18.7,15.5,30.17,South,189,7.0,7.0,87,0.00,,---,0.00,VWS V13.01,2013-02-10 02:02:00,
2013-02-09 20:07:00,18.7,15.5,30.17,SSW,201,0.0,9.0,87,0.00,,---,0.00,VWS V13.01,2013-02-10 02:07:00,
2013-02-09 20:12:00,18.7,15.5,30.17,SSW,211,0.0,9.0,87,0.00,,---,0.00,VWS V13.01,2013-02-10 02:12:00,
2013-02-09 20:17:00,18.8,15.6,30.17,SSW,203,0.0,9.0,87,0.00,,---,0.00,VWS V13.01,2013-02-10 02:17:00,
2013-02-09 20:22:00,18.8,15.6,30.17,SSW,204,2.0,9.0,87,0.00,,---,0.00,VWS V13.01,2013-02-10 02:22:00,
2013-02-09 20:27:00,18.8,15.6,30.17,SSW,204,0.0,9.0,87,0.00,,---,0.00,VWS V13.01,2013-02-10 02:27:00,
2013-02-09 20:32:00,18.8,15.6,30.17,SSW,209,0.0,0.0,87,0.00,,---,0.00,VWS V13.01,2013-02-10 02:32:00,
2013-02-09 20:37:00,18.9,15.7,30.17,SSW,211,0.0,5.0,87,0.00,,---,0.00,VWS V13.01,2013-02-10 02:37:00,
2013-02-09 20:42:00,19.0,16.0,30.17,SW,221,0.0,5.0,88,0.00,,---,0.00,VWS V13.01,2013-02-10 02:42:00,
2013-02-09 20:47:00,19.1,16.1,30.17,SSW,209,2.0,5.0,88,0.00,,---,0.00,VWS V13.01,2013-02-10 02:47:00,
2013-02-09 20:52:00,19.1,16.1,30.17,SSW,209,0.0,5.0,88,0.00,,---,0.00,VWS V13.01,2013-02-10 02:52:00,
2013-02-09 20:57:00,19.1,16.1,30.17,West,280,0.0,5.0,88,0.00,,---,0.00,VWS V13.01,2013-02-10 02:57:00,
2013-02-09 21:02:00,19.1,16.1,30.17,West,281,0.0,0.0,88,0.00,,---,0.00,VWS V13.01,2013-02-10 03:02:00,
2013-02-09 21:07:00,19.1,16.1,30.17,SW,222,1.0,2.0,88,0.00,,---,0.00,VWS V13.01,2013-02-10 03:07:00,
2013-02-09 21:12:00,19.1,16.1,30.17,SW,222,0.0,2.0,88,0.00,,---,0.00,VWS V13.01,2013-02-10 03:12:00,
2013-02-09 21:17:00,19.1,16.1,30.17,SW,222,0.0,2.0,88,0.00,,---,0.00,VWS V13.01,2013-02-10 03:17:00,
2013-02-09 21:22:00,19.1,16.1,30.17,South,189,2.0,2.0,88,0.00,,---,0.00,VWS V13.01,2013-02-10 03:22:00,
2013-02-09 21:27:00,19.1,16.1,30.17,West,261,0.0,2.0,88,0.00,,---,0.00,VWS V13.01,2013-02-10 03:27:00,
2013-02-09 21:32:00,19.1,16.1,30.17,West,261,0.0,0.0,88,0.00,,---,0.00,VWS V13.01,2013-02-10 03:32:00,
2013-02-09 21:37:00,19.2,16.2,30.17,West,261,0.0,1.0,88,0.00,,---,0.00,VWS V13.01,2013-02-10 03:37:00,
2013-02-09 21:42:00,19.2,16.2,30.17,West,261,0.0,1.0,88,0.00,,---,0.00,VWS V13.01,2013-02-10 03:42:00,
2013-02-09 21:47:00,19.2,16.2,30.17,West,261,0.0,1.0,88,0.00,,---,0.00,VWS V13.01,2013-02-10 03:47:00,
2013-02-09 21:52:00,19.2,16.2,30.17,West,261,0.0,1.0,88,0.00,,---,0.00,VWS V13.01,2013-02-10 03:52:00,
2013-02-09 21:57:00,19.2,16.2,30.16,West,261,1.0,2.0,88,0.00,,---,0.00,VWS V13.01,2013-02-10 03:57:00,
2013-02-09 22:02:00,19.2,16.2,30.16,West,261,0.0,0.0,88,0.00,,---,0.00,VWS V13.01,2013-02-10 04:02:00,
2013-02-09 22:08:00,19.2,16.2,30.16,West,261,0.0,1.0,88,0.00,,---,0.00,VWS V13.01,2013-02-10 04:08:00,
2013-02-09 22:13:00,19.2,16.2,30.16,West,260,0.0,1.0,88,0.00,,---,0.00,VWS V13.01,2013-02-10 04:13:00,
2013-02-09 22:18:00,19.3,16.3,30.16,SW,215,0.0,2.0,88,0.00,,---,0.00,VWS V13.01,2013-02-10 04:18:00,
2013-02-09 22:23:00,19.3,16.6,30.16,SW,215,0.0,2.0,89,0.00,,---,0.00,VWS V13.01,2013-02-10 04:23:00,
2013-02-09 22:28:00,19.3,16.6,30.16,SW,215,0.0,2.0,89,0.00,,---,0.00,VWS V13.01,2013-02-10 04:28:00,
2013-02-09 22:33:00,19.3,16.6,30.15,SW,215,0.0,0.0,89,0.00,,---,0.00,VWS V13.01,2013-02-10 04:33:00,
2013-02-09 22:38:00,19.3,16.6,30.15,SW,215,0.0,1.0,89,0.00,,---,0.00,VWS V13.01,2013-02-10 04:38:00,
2013-02-09 22:43:00,19.3,16.6,30.15,SW,215,0.0,1.0,89,0.00,,---,0.00,VWS V13.01,2013-02-10 04:43:00,
2013-02-09 22:48:00,19.3,16.6,30.15,SW,215,0.0,1.0,89,0.00,,---,0.00,VWS V13.01,2013-02-10 04:48:00,
2013-02-09 22:53:00,19.4,18.9,30.15,SW,215,0.0,1.0,98,0.00,,---,0.00,VWS V13.01,2013-02-10 04:53:00,
2013-02-09 22:58:00,19.4,18.9,30.15,SW,215,0.0,1.0,98,0.00,,---,0.00,VWS V13.01,2013-02-10 04:58:00,
2013-02-09 23:00:00,19.4,18.9,30.15,SW,215,0.0,1.0,98,0.00,,---,0.00,VWS V13.01,2013-02-10 05:00:00,
2013-02-09 23:05:00,19.4,16.7,30.15,SW,215,0.0,0.0,89,0.00,,---,0.00,VWS V13.01,2013-02-10 05:05:00,
2013-02-09 23:10:00,19.5,16.8,30.15,SW,215,0.0,1.0,89,0.00,,---,0.00,VWS V13.01,2013-02-10 05:10:00,
2013-02-09 23:15:00,19.5,16.8,30.15,SW,215,0.0,1.0,89,0.00,,---,0.00,VWS V13.01,2013-02-10 05:15:00,
2013-02-09 23:20:00,19.5,16.8,30.14,SW,215,0.0,1.0,89,0.00,,---,0.00,VWS V13.01,2013-02-10 05:20:00,
2013-02-09 23:25:00,19.6,16.9,30.15,SW,215,0.0,1.0,89,0.00,,---,0.00,VWS V13.01,2013-02-10 05:25:00,
2013-02-09 23:30:00,19.7,17.0,30.14,SW,215,0.0,1.0,89,0.00,,---,0.00,VWS V13.01,2013-02-10 05:30:00,
2013-02-09 23:35:00,19.7,17.2,30.14,SW,215,0.0,0.0,90,0.00,,---,0.00,VWS V13.01,2013-02-10 05:35:00,
2013-02-09 23:40:00,19.7,17.2,30.14,SW,215,0.0,0.0,90,0.00,,---,0.00,VWS V13.01,2013-02-10 05:40:00,
2013-02-09 23:45:00,19.7,17.2,30.14,SW,215,0.0,0.0,90,0.00,,---,0.00,VWS V13.01,2013-02-10 05:45:00,
2013-02-09 23:50:00,19.7,17.2,30.14,SW,215,0.0,0.0,90,0.00,,---,0.00,VWS V13.01,2013-02-10 05:50:00,
2013-02-09 23:55:00,19.7,17.2,30.14,SW,215,0.0,0.0,90,0.00,,---,0.00,VWS V13.01,2013-02-10 05:55:00,